createdAt,value
2023-02-09T00:01:02.812Z,102988.95
2023-02-09T00:04:31.838Z,102988.77
2023-02-09T00:07:31.213Z,102982.73
2023-02-09T00:10:39.719Z,102975.81
2023-02-09T00:13:58.924Z,102969.77
2023-02-09T00:17:28.014Z,102965.27
2023-02-09T00:20:57.397Z,102966.87
2023-02-09T00:24:26.838Z,102973.67
2023-02-09T00:27:56.019Z,102969.36
2023-02-09T00:31:25.594Z,102974.73
2023-02-09T00:34:54.763Z,102973.65
2023-02-09T00:38:17.276Z,102976.33
2023-02-09T00:41:44.590Z,102988.34
2023-02-09T00:45:13.194Z,102988.88
2023-02-09T00:48:34.346Z,102988.77
2023-02-09T00:52:03.239Z,102986.64
2023-02-09T00:55:31.978Z,102990.33
2023-02-09T00:58:00.998Z,102990.53
2023-02-09T01:00:32.843Z,102988.98
2023-02-09T01:03:04.719Z,102984.56
2023-02-09T01:06:33.369Z,102982.94
2023-02-09T01:09:22.987Z,102984.98
2023-02-09T01:12:51.779Z,102982.22
2023-02-09T01:16:20.541Z,102982.10
2023-02-09T01:19:49.718Z,102971.58
2023-02-09T01:23:18.900Z,102974.14
2023-02-09T01:26:48.426Z,102975.48
2023-02-09T01:30:16.531Z,102975.20
2023-02-09T01:33:28.891Z,102975.23
2023-02-09T01:36:20.985Z,102972.14
2023-02-09T01:39:39.869Z,102980.05
2023-02-09T01:42:47.719Z,102981.70
2023-02-09T01:46:00.702Z,102977.89
2023-02-09T01:48:51.841Z,102980.43
2023-02-09T01:51:44.499Z,102979.28
2023-02-09T01:55:15.798Z,102977.34
2023-02-09T01:58:50.683Z,102974.08
2023-02-09T02:02:19.376Z,102971.21
2023-02-09T02:05:48.260Z,102971.50
2023-02-09T02:09:22.578Z,102968.05
2023-02-09T02:12:41.408Z,102963.80
2023-02-09T02:16:13.130Z,102960.74
2023-02-09T02:19:54.502Z,102960.38
2023-02-09T02:23:29.255Z,102966.33
2023-02-09T02:27:12.853Z,102963.27
2023-02-09T02:30:37.965Z,102952.42
2023-02-09T02:34:05.054Z,102947.05
2023-02-09T02:37:49.136Z,102944.77
2023-02-09T02:41:29.149Z,102943.29
2023-02-09T02:44:58.001Z,102934.34
2023-02-09T02:48:27.075Z,102933.26
2023-02-09T02:51:57.030Z,102933.27
2023-02-09T02:55:34.698Z,102928.25
2023-02-09T02:59:03.431Z,102929.95
2023-02-09T03:02:34.975Z,102921.36
2023-02-09T03:06:04.240Z,102921.13
2023-02-09T03:09:33.323Z,102917.55
2023-02-09T03:13:23.139Z,102920.98
2023-02-09T03:17:10.081Z,102913.23
2023-02-09T03:20:35.869Z,102921.91
2023-02-09T03:23:54.740Z,102927.83
2023-02-09T03:26:32.275Z,102929.41
2023-02-09T03:29:23.001Z,102929.25
2023-02-09T03:31:52.385Z,102926.21
2023-02-09T03:34:57.962Z,102928.66
2023-02-09T03:37:46.065Z,102925.63
2023-02-09T03:40:50.546Z,102921.64
2023-02-09T03:43:47.860Z,102919.04
2023-02-09T03:46:36.601Z,102922.76
2023-02-09T03:49:21.691Z,102925.19
2023-02-09T03:51:53.828Z,102928.16
2023-02-09T03:54:29.026Z,102933.19
2023-02-09T03:57:17.735Z,102938.45
2023-02-09T03:59:52.186Z,102935.45
2023-02-09T04:02:24.189Z,102935.34
2023-02-09T04:05:23.082Z,102934.00
2023-02-09T04:08:42.040Z,102926.91
2023-02-09T04:12:10.605Z,102926.73
2023-02-09T04:15:39.227Z,102926.52
2023-02-09T04:18:10.545Z,102924.67
2023-02-09T04:21:00.032Z,102921.55
2023-02-09T04:23:34.981Z,102919.21
2023-02-09T04:26:13.687Z,102924.04
2023-02-09T04:28:48.282Z,102923.69
2023-02-09T04:31:17.753Z,102920.21
2023-02-09T04:33:52.100Z,102917.61
2023-02-09T04:36:50.478Z,102920.67
2023-02-09T04:39:24.166Z,102924.86
2023-02-09T04:42:33.108Z,102931.73
2023-02-09T04:45:41.920Z,102930.46
2023-02-09T04:48:35.784Z,102927.50
2023-02-09T04:51:57.768Z,102925.98
2023-02-09T04:55:06.439Z,102924.08
2023-02-09T04:57:56.202Z,102913.05
2023-02-09T05:00:56.006Z,102907.41
2023-02-09T05:03:27.022Z,102900.80
2023-02-09T05:06:10.423Z,102898.88
2023-02-09T05:08:42.026Z,102892.02
2023-02-09T05:11:13.439Z,102895.01
2023-02-09T05:14:02.653Z,102901.95
2023-02-09T05:16:39.252Z,102898.70
2023-02-09T05:19:11.099Z,102899.95
2023-02-09T05:21:42.035Z,102896.39
2023-02-09T05:24:30.982Z,102888.07
2023-02-09T05:27:03.164Z,102883.67
2023-02-09T05:29:51.014Z,102879.87
2023-02-09T05:32:23.398Z,102877.14
2023-02-09T05:35:00.327Z,102877.39
2023-02-09T05:37:32.112Z,102879.68
2023-02-09T05:40:17.609Z,102880.82
2023-02-09T05:42:56.075Z,102880.77
2023-02-09T05:45:27.768Z,102881.40
2023-02-09T05:48:07.899Z,102882.15
2023-02-09T05:50:36.978Z,102878.95
2023-02-09T05:53:08.458Z,102874.89
2023-02-09T05:56:31.113Z,102876.83
2023-02-09T05:59:21.209Z,102877.82
2023-02-09T06:01:52.612Z,102873.89
2023-02-09T06:04:49.104Z,102867.67
2023-02-09T06:07:47.000Z,102867.17
2023-02-09T06:10:32.242Z,102864.02
2023-02-09T06:13:01.074Z,102859.04
2023-02-09T06:16:13.451Z,102854.75
2023-02-09T06:18:42.387Z,102855.82
2023-02-09T06:21:38.688Z,102856.16
2023-02-09T06:24:23.024Z,102857.98
2023-02-09T06:27:26.252Z,102858.33
2023-02-09T06:29:55.778Z,102853.80
2023-02-09T06:33:04.428Z,102849.95
2023-02-09T06:35:52.277Z,102849.80
2023-02-09T06:38:35.557Z,102848.02
2023-02-09T06:41:35.703Z,102842.98
2023-02-09T06:44:25.056Z,102838.51
2023-02-09T06:47:23.005Z,102834.60
2023-02-09T06:49:52.115Z,102842.45
2023-02-09T06:52:26.879Z,102845.38
2023-02-09T06:55:59.076Z,102846.56
2023-02-09T06:59:16.943Z,102839.14
2023-02-09T07:02:35.547Z,102835.34
2023-02-09T07:06:04.426Z,102837.23
2023-02-09T07:09:23.478Z,102837.02
2023-02-09T07:11:55.494Z,102829.77
2023-02-09T07:14:40.060Z,102820.77
2023-02-09T07:17:29.312Z,102815.17
2023-02-09T07:20:12.867Z,102815.17
2023-02-09T07:22:55.944Z,102818.05
2023-02-09T07:26:00.737Z,102810.08
2023-02-09T07:28:29.934Z,102810.08
2023-02-09T07:31:30.211Z,102814.55
2023-02-09T07:34:34.312Z,102808.52
2023-02-09T07:37:20.929Z,102811.73
2023-02-09T07:39:49.731Z,102810.77
2023-02-09T07:42:31.644Z,102811.13
2023-02-09T07:45:30.644Z,102814.60
2023-02-09T07:48:23.270Z,102814.81
2023-02-09T07:51:42.131Z,102809.86
2023-02-09T07:54:27.000Z,102803.76
2023-02-09T07:57:28.724Z,102796.08
2023-02-09T08:00:31.098Z,102787.19
2023-02-09T08:03:30.679Z,102787.99
2023-02-09T08:06:48.952Z,102791.06
2023-02-09T08:09:35.889Z,102782.14
2023-02-09T08:12:47.720Z,102774.30
2023-02-09T08:15:47.011Z,102768.60
2023-02-09T08:19:13.944Z,102764.11
2023-02-09T08:22:25.950Z,102756.86
2023-02-09T08:25:38.260Z,102754.98
2023-02-09T08:28:50.477Z,102751.46
2023-02-09T08:31:23.253Z,102747.13
2023-02-09T08:34:24.788Z,102745.20
2023-02-09T08:37:12.822Z,102742.13
2023-02-09T08:39:57.175Z,102734.92
2023-02-09T08:43:16.229Z,102725.87
2023-02-09T08:45:55.891Z,102721.64
2023-02-09T08:48:48.066Z,102713.98
2023-02-09T08:52:07.607Z,102711.52
2023-02-09T08:55:16.621Z,102707.05
2023-02-09T08:58:13.989Z,102706.86
2023-02-09T09:00:52.097Z,102703.45
2023-02-09T09:04:21.318Z,102701.41
2023-02-09T09:07:43.559Z,102696.53
2023-02-09T09:11:12.781Z,102697.21
2023-02-09T09:14:41.908Z,102689.92
2023-02-09T09:17:37.276Z,102685.38
2023-02-09T09:20:36.467Z,102679.27
2023-02-09T09:24:05.738Z,102672.42
2023-02-09T09:27:35.065Z,102669.50
2023-02-09T09:30:57.967Z,102668.78
2023-02-09T09:34:26.973Z,102667.20
2023-02-09T09:37:54.918Z,102666.52
2023-02-09T09:41:24.235Z,102662.34
2023-02-09T09:44:56.415Z,102661.61
2023-02-09T09:48:25.269Z,102660.55
2023-02-09T09:52:00.383Z,102655.08
2023-02-09T09:55:23.682Z,102651.20
2023-02-09T09:58:39.077Z,102647.77
2023-02-09T10:01:57.258Z,102652.04
2023-02-09T10:05:26.305Z,102653.71
2023-02-09T10:08:41.177Z,102644.40
2023-02-09T10:11:42.704Z,102642.54
2023-02-09T10:15:08.718Z,102636.52
2023-02-09T10:18:17.003Z,102628.63
2023-02-09T10:21:36.892Z,102629.71
2023-02-09T10:25:08.391Z,102621.29
2023-02-09T10:28:24.134Z,102616.73
2023-02-09T10:31:35.717Z,102615.77
2023-02-09T10:34:48.024Z,102616.21
2023-02-09T10:38:19.927Z,102608.33
2023-02-09T10:41:49.413Z,102607.45
2023-02-09T10:45:27.947Z,102602.95
2023-02-09T10:49:03.210Z,102597.77
2023-02-09T10:52:32.676Z,102599.24
2023-02-09T10:56:01.917Z,102589.80
2023-02-09T10:59:31.717Z,102577.61
2023-02-09T11:03:16.335Z,102572.43
2023-02-09T11:06:46.005Z,102565.91
2023-02-09T11:10:23.276Z,102558.60
2023-02-09T11:14:01.037Z,102550.53
2023-02-09T11:17:29.681Z,102546.40
2023-02-09T11:21:01.795Z,102545.14
2023-02-09T11:24:34.280Z,102532.81
2023-02-09T11:28:12.742Z,102518.53
2023-02-09T11:31:38.978Z,102513.71
2023-02-09T11:35:06.583Z,102510.23
2023-02-09T11:38:38.808Z,102504.80
2023-02-09T11:42:08.960Z,102508.00
2023-02-09T11:45:53.466Z,102505.77
2023-02-09T11:49:25.857Z,102506.58
2023-02-09T11:52:54.824Z,102502.76
2023-02-09T11:56:29.712Z,102498.05
2023-02-09T12:00:01.753Z,102496.73
2023-02-09T12:03:42.720Z,102496.93
2023-02-09T12:07:11.797Z,102492.46
2023-02-09T12:10:56.051Z,102495.24
2023-02-09T12:14:28.305Z,102490.09
2023-02-09T12:18:06.782Z,102487.70
2023-02-09T12:21:39.253Z,102484.17
2023-02-09T12:25:13.609Z,102483.38
2023-02-09T12:28:51.533Z,102475.13
2023-02-09T12:32:18.926Z,102470.14
2023-02-09T12:36:03.064Z,102459.55
2023-02-09T12:39:44.416Z,102446.80
2023-02-09T12:43:22.586Z,102439.70
2023-02-09T12:46:40.639Z,102433.77
2023-02-09T12:49:35.226Z,102429.36
2023-02-09T12:52:39.006Z,102424.16
2023-02-09T12:55:52.728Z,102417.96
2023-02-09T12:59:48.301Z,102406.23
2023-02-09T13:03:18.858Z,102391.70
2023-02-09T13:06:50.807Z,102386.63
2023-02-09T13:10:20.069Z,102376.60
2023-02-09T13:13:49.294Z,102368.48
2023-02-09T13:17:25.637Z,102356.86
2023-02-09T13:20:59.079Z,102353.83
2023-02-09T13:24:35.990Z,102347.18
2023-02-09T13:28:04.757Z,102345.23
2023-02-09T13:31:33.920Z,102339.46
2023-02-09T13:35:06.052Z,102333.15
2023-02-09T13:38:50.678Z,102328.20
2023-02-09T13:42:16.495Z,102327.20
2023-02-09T13:45:39.039Z,102329.31
2023-02-09T13:49:08.226Z,102328.11
2023-02-09T13:52:55.764Z,102327.52
2023-02-09T13:56:25.095Z,102321.81
2023-02-09T13:59:54.305Z,102325.45
2023-02-09T14:03:23.471Z,102329.98
2023-02-09T14:06:51.062Z,102328.02
2023-02-09T14:10:19.636Z,102328.34
2023-02-09T14:13:46.631Z,102321.80
2023-02-09T14:17:25.317Z,102311.95
2023-02-09T14:20:46.611Z,102302.75
2023-02-09T14:23:56.894Z,102300.50
2023-02-09T14:27:40.489Z,102291.36
2023-02-09T14:31:17.243Z,102282.48
2023-02-09T14:34:37.498Z,102280.77
2023-02-09T14:37:49.320Z,102278.84
2023-02-09T14:41:00.000Z,102271.55
2023-02-09T14:44:28.715Z,102267.85
2023-02-09T14:47:02.605Z,102266.85
2023-02-09T14:50:31.528Z,102264.73
2023-02-09T14:54:03.090Z,102259.69
2023-02-09T14:57:35.015Z,102255.61
2023-02-09T15:00:55.950Z,102250.47
2023-02-09T15:04:25.092Z,102250.26
2023-02-09T15:07:40.510Z,102239.95
2023-02-09T15:11:18.773Z,102237.23
2023-02-09T15:14:47.642Z,102243.42
2023-02-09T15:18:16.583Z,102240.07
2023-02-09T15:21:44.333Z,102239.20
2023-02-09T15:25:13.859Z,102253.51
2023-02-09T15:28:29.063Z,102253.11
2023-02-09T15:31:58.185Z,102251.53
2023-02-09T15:35:27.394Z,102242.13
2023-02-09T15:38:56.664Z,102229.97
2023-02-09T15:42:23.623Z,102227.69
2023-02-09T15:45:53.774Z,102233.71
2023-02-09T15:49:22.028Z,102244.78
2023-02-09T15:52:51.139Z,102248.27
2023-02-09T15:56:20.280Z,102243.79
2023-02-09T15:59:49.344Z,102236.26
2023-02-09T16:03:18.072Z,102234.34
2023-02-09T16:06:47.242Z,102233.81
2023-02-09T16:10:18.695Z,102234.83
2023-02-09T16:13:47.913Z,102231.21
2023-02-09T16:17:17.374Z,102227.80
2023-02-09T16:20:46.354Z,102227.05
2023-02-09T16:24:15.993Z,102220.05
2023-02-09T16:27:45.014Z,102216.01
2023-02-09T16:31:17.515Z,102206.95
2023-02-09T16:34:46.652Z,102199.97
2023-02-09T16:38:16.567Z,102193.03
2023-02-09T16:41:43.303Z,102180.64
2023-02-09T16:45:12.970Z,102180.48
2023-02-09T16:48:41.932Z,102166.57
2023-02-09T16:52:11.369Z,102163.23
2023-02-09T16:55:40.993Z,102155.66
2023-02-09T16:59:12.957Z,102156.64
2023-02-09T17:02:42.530Z,102157.30
2023-02-09T17:06:32.879Z,102151.90
2023-02-09T17:10:01.147Z,102144.25
2023-02-09T17:13:20.827Z,102140.59
2023-02-09T17:16:50.071Z,102138.16
2023-02-09T17:20:19.393Z,102141.09
2023-02-09T17:23:48.464Z,102144.67
2023-02-09T17:27:17.704Z,102144.91
2023-02-09T17:30:46.458Z,102144.94
2023-02-09T17:34:15.655Z,102147.18
2023-02-09T17:37:34.240Z,102140.59
2023-02-09T17:41:03.476Z,102135.38
2023-02-09T17:44:45.722Z,102132.01
2023-02-09T17:48:14.774Z,102126.25
2023-02-09T17:51:43.951Z,102117.56
2023-02-09T17:55:09.202Z,102107.67
2023-02-09T17:58:38.588Z,102095.83
2023-02-09T18:02:08.008Z,102093.37
2023-02-09T18:05:37.118Z,102092.05
2023-02-09T18:09:05.748Z,102093.86
2023-02-09T18:12:43.849Z,102103.52
2023-02-09T18:16:16.191Z,102105.45
2023-02-09T18:19:45.389Z,102112.28
2023-02-09T18:23:14.771Z,102110.98
2023-02-09T18:26:44.489Z,102105.27
2023-02-09T18:30:13.743Z,102088.63
2023-02-09T18:33:43.194Z,102088.81
2023-02-09T18:37:12.321Z,102094.39
2023-02-09T18:40:44.886Z,102097.75
2023-02-09T18:44:04.512Z,102100.33
2023-02-09T18:47:33.638Z,102096.98
2023-02-09T18:51:03.052Z,102084.60
2023-02-09T18:54:12.624Z,102075.90
2023-02-09T18:57:24.175Z,102068.02
2023-02-09T19:00:53.602Z,102068.98
2023-02-09T19:04:22.824Z,102071.91
2023-02-09T19:07:51.718Z,102063.52
2023-02-09T19:11:10.594Z,102055.72
2023-02-09T19:14:38.269Z,102047.08
2023-02-09T19:17:57.516Z,102041.39
2023-02-09T19:21:26.560Z,102039.75
2023-02-09T19:24:55.262Z,102038.55
2023-02-09T19:28:24.508Z,102031.61
2023-02-09T19:31:56.913Z,102020.61
2023-02-09T19:35:16.097Z,102010.21
2023-02-09T19:38:45.091Z,101988.77
2023-02-09T19:42:13.988Z,101983.26
2023-02-09T19:45:43.147Z,102000.11
2023-02-09T19:49:12.421Z,102005.11
2023-02-09T19:52:41.753Z,101998.39
2023-02-09T19:56:10.842Z,101995.02
2023-02-09T19:59:39.751Z,101993.88
2023-02-09T20:03:08.649Z,101984.20
2023-02-09T20:06:29.487Z,101966.36
2023-02-09T20:09:59.470Z,101959.38
2023-02-09T20:13:28.782Z,101967.57
2023-02-09T20:17:04.046Z,101966.31
2023-02-09T20:20:33.224Z,101967.33
2023-02-09T20:23:52.682Z,101955.92
2023-02-09T20:27:19.115Z,101952.11
2023-02-09T20:30:48.869Z,101936.92
2023-02-09T20:34:20.070Z,101914.20
2023-02-09T20:37:38.993Z,101893.02
2023-02-09T20:41:07.984Z,101882.34
2023-02-09T20:44:35.728Z,101865.61
2023-02-09T20:47:35.067Z,101858.02
2023-02-09T20:50:57.089Z,101854.77
2023-02-09T20:54:26.857Z,101849.30
2023-02-09T20:57:35.658Z,101834.68
2023-02-09T21:00:54.759Z,101829.60
2023-02-09T21:03:48.399Z,101819.33
2023-02-09T21:07:17.130Z,101814.91
2023-02-09T21:10:38.985Z,101811.58
2023-02-09T21:14:09.601Z,101808.61
2023-02-09T21:17:22.889Z,101812.57
2023-02-09T21:19:51.712Z,101809.77
2023-02-09T21:23:13.805Z,101809.48
2023-02-09T21:26:20.286Z,101812.52
2023-02-09T21:29:49.212Z,101814.48
2023-02-09T21:33:17.816Z,101808.88
2023-02-09T21:36:15.971Z,101802.30
2023-02-09T21:39:24.523Z,101799.89
2023-02-09T21:42:53.412Z,101796.94
2023-02-09T21:46:22.739Z,101792.96
2023-02-09T21:49:34.922Z,101782.36
2023-02-09T21:53:04.027Z,101779.12
2023-02-09T21:56:34.247Z,101767.17
2023-02-09T22:00:03.777Z,101764.39
2023-02-09T22:02:33.151Z,101752.58
2023-02-09T22:06:05.238Z,101745.41
2023-02-09T22:09:34.551Z,101743.45
2023-02-09T22:13:03.954Z,101735.16
2023-02-09T22:16:33.035Z,101722.77
2023-02-09T22:19:52.648Z,101714.55
2023-02-09T22:23:21.851Z,101704.40
2023-02-09T22:26:08.631Z,101699.63
2023-02-09T22:29:30.539Z,101690.86
2023-02-09T22:32:59.468Z,101690.95
2023-02-09T22:36:28.749Z,101685.66
2023-02-09T22:39:57.807Z,101676.93
2023-02-09T22:43:27.213Z,101671.52
2023-02-09T22:46:59.413Z,101666.34
2023-02-09T22:50:27.394Z,101658.53
2023-02-09T22:53:56.328Z,101646.58
2023-02-09T22:56:26.023Z,101632.23
2023-02-09T22:59:55.207Z,101625.30
2023-02-09T23:03:24.225Z,101614.66
2023-02-09T23:09:41.196Z,101612.25
2023-02-09T23:12:40.360Z,101609.27
2023-02-09T23:16:09.720Z,101605.63
2023-02-09T23:19:39.282Z,101593.98
2023-02-09T23:23:08.383Z,101589.51
2023-02-09T23:26:37.411Z,101579.48
2023-02-09T23:30:06.818Z,101577.56
2023-02-09T23:33:16.346Z,101565.36
2023-02-09T23:36:48.442Z,101569.94
2023-02-09T23:40:17.595Z,101564.80
2023-02-09T23:43:46.472Z,101557.19
2023-02-09T23:47:08.792Z,101551.20
2023-02-09T23:50:37.598Z,101552.33
2023-02-09T23:54:06.683Z,101547.23
2023-02-09T23:57:35.277Z,101548.03
